createdAt,value
2023-04-29T00:00:07.537Z,1005.24
2023-04-29T00:00:40.065Z,1005.23
2023-04-29T00:01:12.540Z,1005.25
2023-04-29T00:01:45.017Z,1005.27
2023-04-29T00:02:17.514Z,1005.29
2023-04-29T00:02:50.176Z,1005.31
2023-04-29T00:03:22.707Z,1005.31
2023-04-29T00:03:55.165Z,1005.30
2023-04-29T00:04:27.637Z,1005.30
2023-04-29T00:05:00.267Z,1005.30
2023-04-29T00:05:32.653Z,1005.31
2023-04-29T00:06:05.064Z,1005.32
2023-04-29T00:06:37.537Z,1005.31
2023-04-29T00:07:10.009Z,1005.32
2023-04-29T00:07:42.500Z,1005.34
2023-04-29T00:08:15.036Z,1005.32
2023-04-29T00:08:47.508Z,1005.32
2023-04-29T00:09:20.052Z,1005.34
2023-04-29T00:09:52.814Z,1005.35
2023-04-29T00:10:25.085Z,1005.33
2023-04-29T00:10:57.581Z,1005.30
2023-04-29T00:11:30.110Z,1005.31
2023-04-29T00:12:02.593Z,1005.34
2023-04-29T00:12:35.078Z,1005.32
2023-04-29T00:13:07.602Z,1005.34
2023-04-29T00:13:40.102Z,1005.32
2023-04-29T00:14:12.612Z,1005.31
2023-04-29T00:14:45.131Z,1005.30
2023-04-29T00:15:17.629Z,1005.31
2023-04-29T00:15:50.147Z,1005.33
2023-04-29T00:16:22.764Z,1005.32
2023-04-29T00:16:55.194Z,1005.29
2023-04-29T00:17:27.645Z,1005.31
2023-04-29T00:18:00.177Z,1005.31
2023-04-29T00:18:32.633Z,1005.33
2023-04-29T00:19:05.137Z,1005.32
2023-04-29T00:19:37.649Z,1005.33
2023-04-29T00:20:10.113Z,1005.31
2023-04-29T00:20:42.620Z,1005.35
2023-04-29T00:21:15.074Z,1005.33
2023-04-29T00:21:47.576Z,1005.34
2023-04-29T00:22:20.055Z,1005.36
2023-04-29T00:22:52.556Z,1005.37
2023-04-29T00:23:25.071Z,1005.37
2023-04-29T00:23:57.560Z,1005.38
2023-04-29T00:24:30.082Z,1005.39
2023-04-29T00:25:02.561Z,1005.38
2023-04-29T00:25:35.065Z,1005.41
2023-04-29T00:26:07.579Z,1005.40
2023-04-29T00:26:40.075Z,1005.44
2023-04-29T00:27:12.527Z,1005.40
2023-04-29T00:27:45.002Z,1005.42
2023-04-29T00:28:17.534Z,1005.42
2023-04-29T00:28:50.037Z,1005.41
2023-04-29T00:29:22.519Z,1005.44
2023-04-29T00:29:55.083Z,1005.46
2023-04-29T00:30:27.490Z,1005.48
2023-04-29T00:31:00.071Z,1005.49
2023-04-29T00:31:32.591Z,1005.49
2023-04-29T00:32:05.057Z,1005.51
2023-04-29T00:32:37.587Z,1005.56
2023-04-29T00:33:10.159Z,1005.52
2023-04-29T00:33:42.576Z,1005.52
2023-04-29T00:34:15.069Z,1005.55
2023-04-29T00:34:47.564Z,1005.52
2023-04-29T00:35:20.035Z,1005.52
2023-04-29T00:35:52.523Z,1005.53
2023-04-29T00:36:24.977Z,1005.54
2023-04-29T00:36:57.448Z,1005.53
2023-04-29T00:37:29.947Z,1005.54
2023-04-29T00:38:02.450Z,1005.54
2023-04-29T00:38:34.925Z,1005.53
2023-04-29T00:39:07.398Z,1005.54
2023-04-29T00:39:39.929Z,1005.52
2023-04-29T00:40:12.414Z,1005.56
2023-04-29T00:40:44.894Z,1005.55
2023-04-29T00:41:17.382Z,1005.53
2023-04-29T00:41:49.877Z,1005.54
2023-04-29T00:42:22.384Z,1005.54
2023-04-29T00:42:54.852Z,1005.54
2023-04-29T00:43:27.343Z,1005.53
2023-04-29T00:43:59.820Z,1005.56
2023-04-29T00:44:32.336Z,1005.54
2023-04-29T00:45:06.034Z,1005.55
2023-04-29T00:45:37.340Z,1005.57
2023-04-29T00:46:09.898Z,1005.59
2023-04-29T00:46:42.359Z,1005.61
2023-04-29T00:47:14.844Z,1005.59
2023-04-29T00:47:47.403Z,1005.62
2023-04-29T00:48:19.828Z,1005.60
2023-04-29T00:48:52.307Z,1005.61
2023-04-29T00:49:24.828Z,1005.63
2023-04-29T00:49:57.339Z,1005.65
2023-04-29T00:50:29.867Z,1005.65
2023-04-29T00:51:02.391Z,1005.65
2023-04-29T00:51:34.917Z,1005.65
2023-04-29T00:52:07.413Z,1005.65
2023-04-29T00:52:39.922Z,1005.67
2023-04-29T00:53:12.424Z,1005.69
2023-04-29T00:53:44.964Z,1005.66
2023-04-29T00:54:17.516Z,1005.66
2023-04-29T00:54:49.972Z,1005.69
2023-04-29T00:55:22.476Z,1005.66
2023-04-29T00:55:54.957Z,1005.65
2023-04-29T00:56:27.491Z,1005.67
2023-04-29T00:56:59.998Z,1005.71
2023-04-29T00:57:32.493Z,1005.73
2023-04-29T00:58:04.969Z,1005.73
2023-04-29T00:58:37.455Z,1005.75
2023-04-29T00:59:09.931Z,1005.75
2023-04-29T00:59:42.427Z,1005.73
2023-04-29T01:00:14.919Z,1005.75
2023-04-29T01:00:47.397Z,1005.78
2023-04-29T01:01:19.888Z,1005.80
2023-04-29T01:01:52.543Z,1005.79
2023-04-29T01:02:24.971Z,1005.80
2023-04-29T01:02:57.565Z,1005.82
2023-04-29T01:03:30.051Z,1005.82
2023-04-29T01:04:02.650Z,1005.84
2023-04-29T01:04:35.053Z,1005.83
2023-04-29T01:05:07.393Z,1005.83
2023-04-29T01:05:39.894Z,1005.85
2023-04-29T01:06:12.361Z,1005.85
2023-04-29T01:06:44.890Z,1005.86
2023-04-29T01:07:17.373Z,1005.88
2023-04-29T01:07:49.886Z,1005.86
2023-04-29T01:08:22.399Z,1005.85
2023-04-29T01:08:54.907Z,1005.87
2023-04-29T01:09:27.427Z,1005.88
2023-04-29T01:09:59.934Z,1005.89
2023-04-29T01:10:32.487Z,1005.91
2023-04-29T01:11:05.005Z,1005.89
2023-04-29T01:11:37.503Z,1005.93
2023-04-29T01:12:09.997Z,1005.89
2023-04-29T01:12:42.515Z,1005.91
2023-04-29T01:13:15.041Z,1005.92
2023-04-29T01:13:47.592Z,1005.90
2023-04-29T01:14:20.140Z,1005.93
2023-04-29T01:14:52.656Z,1005.95
2023-04-29T01:15:25.131Z,1005.93
2023-04-29T01:15:57.627Z,1005.96
2023-04-29T01:16:30.218Z,1005.96
2023-04-29T01:17:02.644Z,1005.97
2023-04-29T01:17:35.259Z,1005.98
2023-04-29T01:18:07.699Z,1006.00
2023-04-29T01:18:40.177Z,1005.97
2023-04-29T01:19:12.661Z,1006.00
2023-04-29T01:19:45.173Z,1006.04
2023-04-29T01:20:17.665Z,1006.03
2023-04-29T01:20:50.220Z,1006.06
2023-04-29T01:21:22.717Z,1006.07
2023-04-29T01:21:55.216Z,1006.06
2023-04-29T01:22:27.697Z,1006.05
2023-04-29T01:23:00.199Z,1006.08
2023-04-29T01:23:32.738Z,1006.06
2023-04-29T01:24:05.231Z,1006.08
2023-04-29T01:24:37.713Z,1006.07
2023-04-29T01:25:10.203Z,1006.11
2023-04-29T01:25:42.721Z,1006.11
2023-04-29T01:26:15.213Z,1006.13
2023-04-29T01:26:47.728Z,1006.11
2023-04-29T01:27:20.206Z,1006.11
2023-04-29T01:27:52.708Z,1006.13
2023-04-29T01:28:25.222Z,1006.15
2023-04-29T01:28:57.694Z,1006.16
2023-04-29T01:29:30.206Z,1006.17
2023-04-29T01:30:02.662Z,1006.16
2023-04-29T01:30:35.208Z,1006.14
2023-04-29T01:31:07.740Z,1006.18
2023-04-29T01:31:40.258Z,1006.18
2023-04-29T01:32:12.757Z,1006.19
2023-04-29T01:32:45.247Z,1006.18
2023-04-29T01:33:17.806Z,1006.21
2023-04-29T01:33:50.312Z,1006.19
2023-04-29T01:34:22.802Z,1006.22
2023-04-29T01:34:55.275Z,1006.21
2023-04-29T01:35:27.789Z,1006.22
2023-04-29T01:36:00.293Z,1006.23
2023-04-29T01:36:32.791Z,1006.24
2023-04-29T01:37:05.304Z,1006.25
2023-04-29T01:37:37.779Z,1006.28
2023-04-29T01:38:10.257Z,1006.26
2023-04-29T01:38:42.785Z,1006.27
2023-04-29T01:39:15.265Z,1006.28
2023-04-29T01:39:47.752Z,1006.27
2023-04-29T01:40:20.235Z,1006.27
2023-04-29T01:40:52.762Z,1006.31
2023-04-29T01:41:25.258Z,1006.32
2023-04-29T01:41:57.758Z,1006.29
2023-04-29T01:42:30.272Z,1006.32
2023-04-29T01:43:02.766Z,1006.32
2023-04-29T01:43:35.292Z,1006.31
2023-04-29T01:44:07.779Z,1006.31
2023-04-29T01:44:40.282Z,1006.31
2023-04-29T01:45:12.759Z,1006.33
2023-04-29T01:45:45.272Z,1006.35
2023-04-29T01:46:17.835Z,1006.32
2023-04-29T01:46:50.344Z,1006.34
2023-04-29T01:47:22.847Z,1006.33
2023-04-29T01:47:55.354Z,1006.32
2023-04-29T01:48:27.819Z,1006.33
2023-04-29T01:49:00.297Z,1006.33
2023-04-29T01:49:32.850Z,1006.32
2023-04-29T01:50:05.377Z,1006.35
2023-04-29T01:50:37.873Z,1006.34
2023-04-29T01:51:10.426Z,1006.30
2023-04-29T01:51:42.917Z,1006.31
2023-04-29T01:52:15.445Z,1006.34
2023-04-29T01:52:47.924Z,1006.32
2023-04-29T01:53:20.510Z,1006.36
2023-04-29T01:53:52.980Z,1006.35
2023-04-29T01:54:25.475Z,1006.35
2023-04-29T01:54:57.969Z,1006.35
2023-04-29T01:55:30.463Z,1006.32
2023-04-29T01:56:02.971Z,1006.36
2023-04-29T01:56:35.469Z,1006.36
2023-04-29T01:57:07.953Z,1006.36
2023-04-29T01:57:40.452Z,1006.38
2023-04-29T01:58:12.932Z,1006.36
2023-04-29T01:58:45.395Z,1006.37
2023-04-29T01:59:17.896Z,1006.37
2023-04-29T01:59:50.430Z,1006.37
2023-04-29T02:00:22.896Z,1006.37
2023-04-29T02:00:55.466Z,1006.36
2023-04-29T02:01:27.938Z,1006.39
2023-04-29T02:02:00.423Z,1006.39
2023-04-29T02:02:32.941Z,1006.37
2023-04-29T02:03:05.569Z,1006.40
2023-04-29T02:03:38.065Z,1006.40
2023-04-29T02:04:10.474Z,1006.36
2023-04-29T02:04:43.007Z,1006.38
2023-04-29T02:05:15.408Z,1006.38
2023-04-29T02:05:47.881Z,1006.40
2023-04-29T02:06:20.357Z,1006.39
2023-04-29T02:06:52.861Z,1006.40
2023-04-29T02:07:25.321Z,1006.43
2023-04-29T02:07:57.814Z,1006.41
2023-04-29T02:08:30.311Z,1006.42
2023-04-29T02:09:02.820Z,1006.42
2023-04-29T02:09:35.301Z,1006.45
2023-04-29T02:10:07.870Z,1006.43
2023-04-29T02:10:40.350Z,1006.42
2023-04-29T02:11:12.854Z,1006.44
2023-04-29T02:11:45.356Z,1006.45
2023-04-29T02:12:17.832Z,1006.45
2023-04-29T02:12:50.326Z,1006.45
2023-04-29T02:13:22.872Z,1006.47
2023-04-29T02:13:55.378Z,1006.50
2023-04-29T02:14:27.865Z,1006.48
2023-04-29T02:15:00.425Z,1006.49
2023-04-29T02:15:32.893Z,1006.50
2023-04-29T02:16:05.434Z,1006.51
2023-04-29T02:16:37.937Z,1006.52
2023-04-29T02:17:10.410Z,1006.53
2023-04-29T02:17:42.915Z,1006.56
2023-04-29T02:18:15.394Z,1006.56
2023-04-29T02:18:47.886Z,1006.55
2023-04-29T02:19:20.391Z,1006.56
2023-04-29T02:19:54.010Z,1006.56
2023-04-29T02:20:26.273Z,1006.56
2023-04-29T02:20:58.745Z,1006.57
2023-04-29T02:21:31.294Z,1006.59
2023-04-29T02:22:03.775Z,1006.55
2023-04-29T02:22:36.284Z,1006.59
2023-04-29T02:23:08.805Z,1006.61
2023-04-29T02:23:41.375Z,1006.62
2023-04-29T02:24:13.894Z,1006.63
2023-04-29T02:24:46.415Z,1006.59
2023-04-29T02:25:18.916Z,1006.59
2023-04-29T02:25:51.428Z,1006.58
2023-04-29T02:26:23.912Z,1006.58
2023-04-29T02:26:56.390Z,1006.61
2023-04-29T02:27:28.912Z,1006.60
2023-04-29T02:28:01.442Z,1006.61
2023-04-29T02:28:33.963Z,1006.60
2023-04-29T02:29:06.490Z,1006.60
2023-04-29T02:29:38.976Z,1006.63
2023-04-29T02:30:11.541Z,1006.62
2023-04-29T02:30:44.045Z,1006.63
2023-04-29T02:31:16.518Z,1006.63
2023-04-29T02:31:49.071Z,1006.65
2023-04-29T02:32:21.494Z,1006.63
2023-04-29T02:32:54.024Z,1006.66
2023-04-29T02:33:26.488Z,1006.63
2023-04-29T02:33:59.024Z,1006.62
2023-04-29T02:34:31.526Z,1006.65
2023-04-29T02:35:04.025Z,1006.66
2023-04-29T02:35:36.552Z,1006.64
2023-04-29T02:36:09.051Z,1006.66
2023-04-29T02:36:41.527Z,1006.65
2023-04-29T02:37:14.010Z,1006.67
2023-04-29T02:37:46.496Z,1006.67
2023-04-29T02:38:19.010Z,1006.66
2023-04-29T02:38:51.488Z,1006.67
2023-04-29T02:39:23.972Z,1006.68
2023-04-29T02:39:56.496Z,1006.68
2023-04-29T02:40:28.967Z,1006.70
2023-04-29T02:41:01.483Z,1006.73
2023-04-29T02:41:33.994Z,1006.72
2023-04-29T02:42:06.501Z,1006.72
2023-04-29T02:42:39.014Z,1006.73
2023-04-29T02:43:11.528Z,1006.74
2023-04-29T02:43:44.045Z,1006.74
2023-04-29T02:44:16.588Z,1006.74
2023-04-29T02:44:49.141Z,1006.75
2023-04-29T02:45:21.701Z,1006.76
2023-04-29T02:45:54.263Z,1006.78
2023-04-29T02:46:26.782Z,1006.77
2023-04-29T02:46:59.243Z,1006.76
2023-04-29T02:47:31.752Z,1006.76
2023-04-29T02:48:04.271Z,1006.78
2023-04-29T02:48:36.701Z,1006.79
2023-04-29T02:49:09.184Z,1006.81
2023-04-29T02:49:41.697Z,1006.81
2023-04-29T02:50:14.188Z,1006.80
2023-04-29T02:50:46.665Z,1006.79
2023-04-29T02:51:19.184Z,1006.81
2023-04-29T02:51:51.670Z,1006.81
2023-04-29T02:52:24.183Z,1006.81
2023-04-29T02:52:56.654Z,1006.83
2023-04-29T02:53:29.161Z,1006.83
2023-04-29T02:54:01.648Z,1006.84
2023-04-29T02:54:34.157Z,1006.85
2023-04-29T02:55:06.655Z,1006.84
2023-04-29T02:55:39.151Z,1006.84
2023-04-29T02:56:11.673Z,1006.83
2023-04-29T02:56:44.154Z,1006.85
2023-04-29T02:57:16.657Z,1006.86
2023-04-29T02:57:49.181Z,1006.86
2023-04-29T02:58:21.664Z,1006.87
2023-04-29T02:58:54.196Z,1006.87
2023-04-29T02:59:26.673Z,1006.87
2023-04-29T02:59:59.169Z,1006.89
2023-04-29T03:00:31.738Z,1006.89
2023-04-29T03:01:04.281Z,1006.89
2023-04-29T03:01:36.806Z,1006.91
2023-04-29T03:02:09.288Z,1006.91
2023-04-29T03:02:41.812Z,1006.92
2023-04-29T03:03:14.453Z,1006.92
2023-04-29T03:03:46.909Z,1006.94
2023-04-29T03:04:19.372Z,1006.93
2023-04-29T03:04:51.775Z,1006.92
2023-04-29T03:05:24.259Z,1006.93
2023-04-29T03:05:56.747Z,1006.94
2023-04-29T03:06:29.249Z,1006.92
2023-04-29T03:07:01.726Z,1006.92
2023-04-29T03:07:34.248Z,1006.94
2023-04-29T03:08:06.772Z,1006.93
2023-04-29T03:08:39.284Z,1006.92
2023-04-29T03:09:11.774Z,1006.92
2023-04-29T03:09:44.259Z,1006.95
2023-04-29T03:10:16.763Z,1006.93
2023-04-29T03:10:49.292Z,1006.94
2023-04-29T03:11:21.783Z,1006.93
2023-04-29T03:11:54.280Z,1006.92
2023-04-29T03:12:26.821Z,1006.93
2023-04-29T03:12:59.303Z,1006.93
2023-04-29T03:13:31.796Z,1006.92
2023-04-29T03:14:04.287Z,1006.96
2023-04-29T03:14:36.764Z,1006.95
2023-04-29T03:15:09.331Z,1006.94
2023-04-29T03:15:41.860Z,1006.92
2023-04-29T03:16:14.417Z,1006.92
2023-04-29T03:16:46.916Z,1006.95
2023-04-29T03:17:19.379Z,1006.93
2023-04-29T03:17:51.902Z,1006.94
2023-04-29T03:18:24.362Z,1006.93
2023-04-29T03:18:56.916Z,1006.95
2023-04-29T03:19:29.427Z,1006.94
2023-04-29T03:20:01.933Z,1006.95
2023-04-29T03:20:34.441Z,1006.96
2023-04-29T03:21:06.917Z,1006.95
2023-04-29T03:21:39.411Z,1006.97
2023-04-29T03:22:11.956Z,1006.93
2023-04-29T03:22:44.447Z,1006.97
2023-04-29T03:23:16.942Z,1006.97
2023-04-29T03:23:49.446Z,1006.97
2023-04-29T03:24:21.966Z,1006.96
2023-04-29T03:24:54.430Z,1006.98
2023-04-29T03:25:26.900Z,1006.98
2023-04-29T03:25:59.407Z,1006.99
2023-04-29T03:26:31.882Z,1006.98
2023-04-29T03:27:04.377Z,1006.98
2023-04-29T03:27:36.855Z,1006.97
2023-04-29T03:28:09.376Z,1007.00
2023-04-29T03:28:41.867Z,1006.98
2023-04-29T03:29:14.368Z,1006.99
2023-04-29T03:29:46.854Z,1007.02
2023-04-29T03:30:19.384Z,1007.00
2023-04-29T03:30:51.889Z,1007.02
2023-04-29T03:31:24.481Z,1007.02
2023-04-29T03:31:56.920Z,1007.04
2023-04-29T03:32:29.457Z,1007.02
2023-04-29T03:33:01.993Z,1007.02
2023-04-29T03:33:34.429Z,1007.03
2023-04-29T03:34:06.916Z,1007.02
2023-04-29T03:34:39.440Z,1007.02
2023-04-29T03:35:13.502Z,1007.02
2023-04-29T03:35:44.399Z,1007.03
2023-04-29T03:36:16.892Z,1007.03
2023-04-29T03:36:49.415Z,1007.05
2023-04-29T03:37:21.913Z,1007.04
2023-04-29T03:37:54.422Z,1007.06
2023-04-29T03:38:26.929Z,1007.08
2023-04-29T03:38:59.446Z,1007.09
2023-04-29T03:39:32.065Z,1007.11
2023-04-29T03:40:04.544Z,1007.11
2023-04-29T03:40:37.063Z,1007.13
2023-04-29T03:41:09.603Z,1007.12
2023-04-29T03:41:42.077Z,1007.13
2023-04-29T03:42:14.544Z,1007.15
2023-04-29T03:42:47.044Z,1007.16
2023-04-29T03:43:19.543Z,1007.17
2023-04-29T03:43:52.047Z,1007.17
2023-04-29T03:44:24.526Z,1007.18
2023-04-29T03:44:57.041Z,1007.18
2023-04-29T03:45:29.532Z,1007.19
2023-04-29T03:46:02.081Z,1007.21
2023-04-29T03:46:34.594Z,1007.19
2023-04-29T03:47:07.039Z,1007.22
2023-04-29T03:47:39.537Z,1007.19
2023-04-29T03:48:11.998Z,1007.20
2023-04-29T03:48:44.520Z,1007.20
2023-04-29T03:49:17.032Z,1007.23
2023-04-29T03:49:49.585Z,1007.22
2023-04-29T03:50:22.022Z,1007.21
2023-04-29T03:50:54.533Z,1007.21
2023-04-29T03:51:27.007Z,1007.20
2023-04-29T03:51:59.482Z,1007.19
2023-04-29T03:52:31.995Z,1007.20
2023-04-29T03:53:04.495Z,1007.21
2023-04-29T03:53:37.030Z,1007.20
2023-04-29T03:54:09.553Z,1007.20
2023-04-29T03:54:42.081Z,1007.21
2023-04-29T03:55:14.616Z,1007.23
2023-04-29T03:55:47.150Z,1007.22
2023-04-29T03:56:19.628Z,1007.23
2023-04-29T03:56:52.107Z,1007.23
2023-04-29T03:57:24.611Z,1007.23
2023-04-29T03:57:57.110Z,1007.24
2023-04-29T03:58:29.663Z,1007.25
2023-04-29T03:59:02.173Z,1007.25
2023-04-29T03:59:34.686Z,1007.27
2023-04-29T04:00:07.182Z,1007.28
2023-04-29T04:00:39.689Z,1007.28
2023-04-29T04:01:12.214Z,1007.28
2023-04-29T04:01:44.765Z,1007.28
2023-04-29T04:02:17.249Z,1007.27
2023-04-29T04:02:49.913Z,1007.29
2023-04-29T04:03:22.443Z,1007.30
2023-04-29T04:03:54.900Z,1007.32
2023-04-29T04:04:27.550Z,1007.29
2023-04-29T04:04:59.872Z,1007.30
2023-04-29T04:05:32.312Z,1007.33
2023-04-29T04:06:04.790Z,1007.36
2023-04-29T04:06:37.287Z,1007.37
2023-04-29T04:07:09.762Z,1007.36
2023-04-29T04:07:42.281Z,1007.35
2023-04-29T04:08:14.767Z,1007.36
2023-04-29T04:08:47.268Z,1007.38
2023-04-29T04:09:19.804Z,1007.39
2023-04-29T04:09:52.406Z,1007.38
2023-04-29T04:10:24.781Z,1007.41
2023-04-29T04:10:57.274Z,1007.41
2023-04-29T04:11:29.783Z,1007.43
2023-04-29T04:12:02.300Z,1007.43
2023-04-29T04:12:34.800Z,1007.43
2023-04-29T04:13:07.239Z,1007.44
2023-04-29T04:13:39.824Z,1007.46
2023-04-29T04:14:12.357Z,1007.46
2023-04-29T04:14:44.837Z,1007.48
2023-04-29T04:15:17.391Z,1007.48
2023-04-29T04:15:49.923Z,1007.51
2023-04-29T04:16:22.349Z,1007.50
2023-04-29T04:16:54.903Z,1007.52
2023-04-29T04:17:27.428Z,1007.53
2023-04-29T04:17:59.999Z,1007.54
2023-04-29T04:18:32.470Z,1007.54
2023-04-29T04:19:04.972Z,1007.54
2023-04-29T04:19:37.485Z,1007.55
2023-04-29T04:20:10.029Z,1007.56
2023-04-29T04:20:42.544Z,1007.58
2023-04-29T04:21:15.085Z,1007.58
2023-04-29T04:21:47.562Z,1007.58
2023-04-29T04:22:20.074Z,1007.60
2023-04-29T04:22:52.565Z,1007.60
2023-04-29T04:23:25.076Z,1007.59
2023-04-29T04:23:57.570Z,1007.60
2023-04-29T04:24:30.049Z,1007.60
2023-04-29T04:25:02.561Z,1007.61
2023-04-29T04:25:35.070Z,1007.60
2023-04-29T04:26:07.552Z,1007.61
2023-04-29T04:26:40.094Z,1007.60
2023-04-29T04:27:12.576Z,1007.64
2023-04-29T04:27:45.075Z,1007.61
2023-04-29T04:28:17.623Z,1007.62
2023-04-29T04:28:50.119Z,1007.66
2023-04-29T04:29:22.701Z,1007.66
2023-04-29T04:29:55.226Z,1007.66
2023-04-29T04:30:27.709Z,1007.67
2023-04-29T04:31:00.250Z,1007.69
2023-04-29T04:31:32.787Z,1007.70
2023-04-29T04:32:05.405Z,1007.70
2023-04-29T04:32:37.894Z,1007.71
2023-04-29T04:33:10.371Z,1007.71
2023-04-29T04:33:50.352Z,1007.72
2023-04-29T04:34:22.861Z,1007.70
2023-04-29T04:34:55.354Z,1007.73
2023-04-29T04:35:27.854Z,1007.74
2023-04-29T04:36:00.357Z,1007.74
2023-04-29T04:36:32.865Z,1007.75
2023-04-29T04:37:05.349Z,1007.76
2023-04-29T04:37:37.872Z,1007.80
2023-04-29T04:38:10.377Z,1007.81
2023-04-29T04:38:42.927Z,1007.80
2023-04-29T04:39:15.469Z,1007.80
2023-04-29T04:39:47.977Z,1007.81
2023-04-29T04:40:20.481Z,1007.84
2023-04-29T04:40:53.005Z,1007.84
2023-04-29T04:41:25.500Z,1007.84
2023-04-29T04:41:58.068Z,1007.84
2023-04-29T04:42:30.606Z,1007.86
2023-04-29T04:43:03.074Z,1007.88
2023-04-29T04:43:35.605Z,1007.87
2023-04-29T04:44:08.079Z,1007.89
2023-04-29T04:44:40.590Z,1007.90
2023-04-29T04:45:13.094Z,1007.89
2023-04-29T04:45:45.634Z,1007.90
2023-04-29T04:46:18.257Z,1007.93
2023-04-29T04:46:50.621Z,1007.93
2023-04-29T04:47:23.134Z,1007.94
2023-04-29T04:47:55.648Z,1007.96
2023-04-29T04:48:35.644Z,1007.95
2023-04-29T04:49:08.136Z,1007.95
2023-04-29T04:49:40.656Z,1007.99
2023-04-29T04:50:13.133Z,1007.99
2023-04-29T04:50:45.635Z,1008.00
2023-04-29T04:51:18.123Z,1007.99
2023-04-29T04:51:50.634Z,1007.99
2023-04-29T04:52:23.158Z,1008.01
2023-04-29T04:52:55.698Z,1008.00
2023-04-29T04:53:28.202Z,1008.03
2023-04-29T04:54:00.741Z,1008.02
2023-04-29T04:54:33.287Z,1008.02
2023-04-29T04:55:05.810Z,1008.01
2023-04-29T04:55:38.362Z,1008.03
2023-04-29T04:56:10.866Z,1008.04
2023-04-29T04:56:43.375Z,1008.04
2023-04-29T04:57:15.877Z,1008.05
2023-04-29T04:57:48.416Z,1008.06
2023-04-29T04:58:20.945Z,1008.06
2023-04-29T04:58:53.490Z,1008.09
2023-04-29T04:59:26.006Z,1008.09
2023-04-29T04:59:58.539Z,1008.12
2023-04-29T05:00:31.068Z,1008.11
2023-04-29T05:01:03.626Z,1008.10
2023-04-29T05:01:36.200Z,1008.12
2023-04-29T05:02:08.723Z,1008.13
2023-04-29T05:02:41.330Z,1008.14
2023-04-29T05:03:13.773Z,1008.15
2023-04-29T05:03:46.393Z,1008.14
2023-04-29T05:04:18.913Z,1008.14
2023-04-29T05:04:51.270Z,1008.16
2023-04-29T05:05:23.773Z,1008.15
2023-04-29T05:05:56.291Z,1008.16
2023-04-29T05:06:28.811Z,1008.15
2023-04-29T05:07:01.331Z,1008.15
2023-04-29T05:07:33.900Z,1008.17
2023-04-29T05:08:06.441Z,1008.17
2023-04-29T05:08:38.944Z,1008.16
2023-04-29T05:09:11.668Z,1008.17
2023-04-29T05:09:44.215Z,1008.16
2023-04-29T05:10:16.736Z,1008.17
2023-04-29T05:10:49.274Z,1008.17
2023-04-29T05:11:21.793Z,1008.15
2023-04-29T05:11:54.307Z,1008.17
2023-04-29T05:12:26.857Z,1008.15
2023-04-29T05:12:59.354Z,1008.13
2023-04-29T05:13:31.864Z,1008.14
2023-04-29T05:14:04.381Z,1008.15
2023-04-29T05:14:36.900Z,1008.15
2023-04-29T05:15:09.412Z,1008.15
2023-04-29T05:15:41.958Z,1008.18
2023-04-29T05:16:14.495Z,1008.17
2023-04-29T05:16:47.031Z,1008.17
2023-04-29T05:17:19.602Z,1008.17
2023-04-29T05:17:52.140Z,1008.17
2023-04-29T05:18:24.602Z,1008.18
2023-04-29T05:18:57.111Z,1008.21
2023-04-29T05:19:29.627Z,1008.23
2023-04-29T05:20:02.172Z,1008.23
2023-04-29T05:20:34.733Z,1008.24
2023-04-29T05:21:07.255Z,1008.24
2023-04-29T05:21:39.768Z,1008.24
2023-04-29T05:22:12.291Z,1008.27
2023-04-29T05:22:44.798Z,1008.28
2023-04-29T05:23:17.332Z,1008.27
2023-04-29T05:23:49.853Z,1008.29
2023-04-29T05:24:22.377Z,1008.29
2023-04-29T05:24:54.942Z,1008.27
2023-04-29T05:25:27.562Z,1008.27
2023-04-29T05:25:59.997Z,1008.31
2023-04-29T05:26:32.531Z,1008.31
2023-04-29T05:27:05.078Z,1008.31
2023-04-29T05:27:37.702Z,1008.31
2023-04-29T05:28:10.221Z,1008.30
2023-04-29T05:28:42.786Z,1008.32
2023-04-29T05:29:15.273Z,1008.32
2023-04-29T05:29:47.802Z,1008.34
2023-04-29T05:30:20.302Z,1008.32
2023-04-29T05:30:52.860Z,1008.31
2023-04-29T05:31:25.372Z,1008.35
2023-04-29T05:31:57.900Z,1008.35
2023-04-29T05:32:30.426Z,1008.35
2023-04-29T05:33:02.930Z,1008.36
2023-04-29T05:33:35.484Z,1008.38
2023-04-29T05:34:07.964Z,1008.39
2023-04-29T05:34:40.463Z,1008.39
2023-04-29T05:35:12.969Z,1008.38
2023-04-29T05:35:45.532Z,1008.40
2023-04-29T05:36:17.973Z,1008.41
2023-04-29T05:36:50.513Z,1008.42
2023-04-29T05:37:23.035Z,1008.43
2023-04-29T05:37:55.550Z,1008.44
2023-04-29T05:38:28.044Z,1008.42
2023-04-29T05:39:00.541Z,1008.42
2023-04-29T05:39:33.155Z,1008.42
2023-04-29T05:40:05.666Z,1008.45
2023-04-29T05:40:38.236Z,1008.44
2023-04-29T05:41:10.724Z,1008.47
2023-04-29T05:41:43.255Z,1008.47
2023-04-29T05:42:15.760Z,1008.46
2023-04-29T05:42:48.295Z,1008.48
2023-04-29T05:43:20.809Z,1008.49
2023-04-29T05:43:53.408Z,1008.51
2023-04-29T05:44:25.887Z,1008.50
2023-04-29T05:44:58.423Z,1008.51
2023-04-29T05:45:31.000Z,1008.52
2023-04-29T05:46:03.629Z,1008.53
2023-04-29T05:46:36.261Z,1008.52
2023-04-29T05:47:08.600Z,1008.52
2023-04-29T05:47:41.210Z,1008.55
2023-04-29T05:48:13.756Z,1008.56
2023-04-29T05:48:53.323Z,1008.57
2023-04-29T05:49:25.815Z,1008.57
2023-04-29T05:49:58.400Z,1008.59
2023-04-29T05:50:30.916Z,1008.60
2023-04-29T05:51:03.453Z,1008.61
2023-04-29T05:51:35.975Z,1008.62
2023-04-29T05:52:08.566Z,1008.64
2023-04-29T05:52:41.103Z,1008.64
2023-04-29T05:53:13.604Z,1008.64
2023-04-29T05:53:46.172Z,1008.67
2023-04-29T05:54:18.764Z,1008.67
2023-04-29T05:54:51.283Z,1008.67
2023-04-29T05:55:23.804Z,1008.69
2023-04-29T05:55:56.308Z,1008.69
2023-04-29T05:56:28.801Z,1008.69
2023-04-29T05:57:01.344Z,1008.70
2023-04-29T05:57:33.879Z,1008.73
2023-04-29T05:58:06.398Z,1008.72
2023-04-29T05:58:38.922Z,1008.74
2023-04-29T05:59:11.474Z,1008.73
2023-04-29T05:59:44.003Z,1008.74
2023-04-29T06:00:16.541Z,1008.75
2023-04-29T06:00:49.125Z,1008.76
2023-04-29T06:01:21.639Z,1008.78
2023-04-29T06:02:01.195Z,1008.80
2023-04-29T06:02:35.880Z,1008.79
2023-04-29T06:03:06.276Z,1008.79
2023-04-29T06:03:38.906Z,1008.79
2023-04-29T06:04:11.284Z,1008.80
2023-04-29T06:04:43.949Z,1008.83
2023-04-29T06:05:16.576Z,1008.82
2023-04-29T06:05:49.112Z,1008.83
2023-04-29T06:06:21.286Z,1008.84
2023-04-29T06:06:53.760Z,1008.85
2023-04-29T06:07:26.267Z,1008.87
2023-04-29T06:07:58.743Z,1008.88
2023-04-29T06:08:31.246Z,1008.86
2023-04-29T06:09:05.218Z,1008.88
2023-04-29T06:09:36.258Z,1008.88
2023-04-29T06:10:08.764Z,1008.89
2023-04-29T06:10:41.303Z,1008.89
2023-04-29T06:11:13.806Z,1008.92
2023-04-29T06:11:46.309Z,1008.93
2023-04-29T06:12:18.830Z,1008.95
2023-04-29T06:12:51.327Z,1008.95
2023-04-29T06:13:23.849Z,1008.96
2023-04-29T06:13:56.353Z,1008.98
2023-04-29T06:14:28.822Z,1008.99
2023-04-29T06:15:01.388Z,1008.99
2023-04-29T06:15:33.904Z,1009.02
2023-04-29T06:16:06.416Z,1009.03
2023-04-29T06:16:38.967Z,1009.04
2023-04-29T06:17:11.414Z,1009.05
2023-04-29T06:17:43.953Z,1009.06
2023-04-29T06:18:16.414Z,1009.07
2023-04-29T06:18:48.901Z,1009.10
2023-04-29T06:19:21.391Z,1009.11
2023-04-29T06:19:54.165Z,1009.12
2023-04-29T06:20:26.382Z,1009.12
2023-04-29T06:20:58.868Z,1009.14
2023-04-29T06:21:31.390Z,1009.15
2023-04-29T06:22:03.888Z,1009.14
2023-04-29T06:22:36.447Z,1009.16
2023-04-29T06:23:08.914Z,1009.16
2023-04-29T06:23:41.425Z,1009.17
2023-04-29T06:24:13.917Z,1009.20
2023-04-29T06:24:46.420Z,1009.20
2023-04-29T06:25:18.914Z,1009.20
2023-04-29T06:25:52.805Z,1009.21
2023-04-29T06:26:23.917Z,1009.20
2023-04-29T06:26:56.424Z,1009.20
2023-04-29T06:27:28.928Z,1009.21
2023-04-29T06:28:01.420Z,1009.20
2023-04-29T06:28:33.981Z,1009.20
2023-04-29T06:29:06.519Z,1009.21
2023-04-29T06:29:39.073Z,1009.20
2023-04-29T06:30:11.701Z,1009.23
2023-04-29T06:30:44.734Z,1009.24
2023-04-29T06:31:17.784Z,1009.24
2023-04-29T06:31:50.186Z,1009.25
2023-04-29T06:32:22.730Z,1009.26
2023-04-29T06:32:55.279Z,1009.25
2023-04-29T06:33:27.750Z,1009.27